sensor_id;sensor_type;location;lat;lon;timestamp;temperature;humidity
52305;DHT22;38248;52.722;6.734;2022-10-30T00:02:16;14.60;99.90
52305;DHT22;38248;52.722;6.734;2022-10-30T00:04:42;14.60;99.90
52305;DHT22;38248;52.722;6.734;2022-10-30T00:07:08;14.60;99.90
52305;DHT22;38248;52.722;6.734;2022-10-30T00:09:33;14.60;99.90
52305;DHT22;38248;52.722;6.734;2022-10-30T00:11:59;14.60;99.90
52305;DHT22;38248;52.722;6.734;2022-10-30T00:14:24;14.50;99.90
52305;DHT22;38248;52.722;6.734;2022-10-30T00:16:50;14.50;99.90
52305;DHT22;38248;52.722;6.734;2022-10-30T00:19:16;14.50;99.90
52305;DHT22;38248;52.722;6.734;2022-10-30T00:21:41;14.40;99.90
52305;DHT22;38248;52.722;6.734;2022-10-30T00:24:10;14.40;99.90
52305;DHT22;38248;52.722;6.734;2022-10-30T00:26:36;14.30;99.90
52305;DHT22;38248;52.722;6.734;2022-10-30T00:29:02;14.30;99.90
52305;DHT22;38248;52.722;6.734;2022-10-30T00:31:27;14.30;99.90
52305;DHT22;38248;52.722;6.734;2022-10-30T00:33:54;14.30;99.90
52305;DHT22;38248;52.722;6.734;2022-10-30T00:36:25;14.30;99.90
52305;DHT22;38248;52.722;6.734;2022-10-30T00:38:53;14.40;99.90
52305;DHT22;38248;52.722;6.734;2022-10-30T00:41:21;14.40;99.90
52305;DHT22;38248;52.722;6.734;2022-10-30T00:43:47;14.40;99.90
52305;DHT22;38248;52.722;6.734;2022-10-30T00:48:58;14.40;99.90
52305;DHT22;38248;52.722;6.734;2022-10-30T00:51:27;14.40;99.90
52305;DHT22;38248;52.722;6.734;2022-10-30T00:53:54;14.40;99.90
52305;DHT22;38248;52.722;6.734;2022-10-30T00:56:21;14.30;99.90
52305;DHT22;38248;52.722;6.734;2022-10-30T00:58:51;14.30;99.90
52305;DHT22;38248;52.722;6.734;2022-10-30T01:01:21;14.30;99.90
52305;DHT22;38248;52.722;6.734;2022-10-30T01:03:51;14.20;99.90
52305;DHT22;38248;52.722;6.734;2022-10-30T01:06:20;14.30;99.90
52305;DHT22;38248;52.722;6.734;2022-10-30T01:08:47;14.20;99.90
52305;DHT22;38248;52.722;6.734;2022-10-30T01:11:14;14.20;99.90
52305;DHT22;38248;52.722;6.734;2022-10-30T01:13:41;14.20;99.90
52305;DHT22;38248;52.722;6.734;2022-10-30T01:19:30;14.20;99.90
52305;DHT22;38248;52.722;6.734;2022-10-30T01:36:32;13.70;99.90
52305;DHT22;38248;52.722;6.734;2022-10-30T01:39:10;13.70;99.90
52305;DHT22;38248;52.722;6.734;2022-10-30T01:41:36;13.60;99.90
52305;DHT22;38248;52.722;6.734;2022-10-30T01:44:07;13.60;99.90
52305;DHT22;38248;52.722;6.734;2022-10-30T01:46:44;13.60;99.90
52305;DHT22;38248;52.722;6.734;2022-10-30T01:49:48;13.50;99.90
52305;DHT22;38248;52.722;6.734;2022-10-30T01:52:35;13.50;99.90
52305;DHT22;38248;52.722;6.734;2022-10-30T01:59:04;13.50;99.90
52305;DHT22;38248;52.722;6.734;2022-10-30T02:00:57;13.50;99.90
52305;DHT22;38248;52.722;6.734;2022-10-30T02:03:24;13.50;99.90
52305;DHT22;38248;52.722;6.734;2022-10-30T02:05:52;13.50;99.90
52305;DHT22;38248;52.722;6.734;2022-10-30T02:08:19;13.60;99.90
52305;DHT22;38248;52.722;6.734;2022-10-30T02:10:46;13.70;99.90
52305;DHT22;38248;52.722;6.734;2022-10-30T02:13:13;13.70;99.90
52305;DHT22;38248;52.722;6.734;2022-10-30T02:15:40;13.80;99.90
52305;DHT22;38248;52.722;6.734;2022-10-30T02:18:07;13.80;99.90
52305;DHT22;38248;52.722;6.734;2022-10-30T02:20:33;13.80;99.90
52305;DHT22;38248;52.722;6.734;2022-10-30T02:22:59;13.80;99.90
52305;DHT22;38248;52.722;6.734;2022-10-30T02:25:27;13.90;99.90
52305;DHT22;38248;52.722;6.734;2022-10-30T02:27:53;13.90;99.90
52305;DHT22;38248;52.722;6.734;2022-10-30T02:30:19;13.80;99.90
52305;DHT22;38248;52.722;6.734;2022-10-30T02:32:44;13.90;99.90
52305;DHT22;38248;52.722;6.734;2022-10-30T02:35:14;13.90;99.90
52305;DHT22;38248;52.722;6.734;2022-10-30T02:37:40;13.80;99.90
52305;DHT22;38248;52.722;6.734;2022-10-30T02:40:09;13.90;99.90
52305;DHT22;38248;52.722;6.734;2022-10-30T02:42:34;13.90;99.90
52305;DHT22;38248;52.722;6.734;2022-10-30T02:45:00;14.00;99.90
52305;DHT22;38248;52.722;6.734;2022-10-30T02:47:27;13.90;99.90
52305;DHT22;38248;52.722;6.734;2022-10-30T02:49:53;14.00;99.90
52305;DHT22;38248;52.722;6.734;2022-10-30T02:52:19;14.00;99.90
52305;DHT22;38248;52.722;6.734;2022-10-30T02:54:52;14.10;99.90
52305;DHT22;38248;52.722;6.734;2022-10-30T03:00:04;14.20;99.90
52305;DHT22;38248;52.722;6.734;2022-10-30T03:02:33;14.20;99.90
52305;DHT22;38248;52.722;6.734;2022-10-30T03:04:58;14.20;99.90
52305;DHT22;38248;52.722;6.734;2022-10-30T03:07:24;14.20;99.90
52305;DHT22;38248;52.722;6.734;2022-10-30T03:09:49;14.00;99.90
52305;DHT22;38248;52.722;6.734;2022-10-30T03:12:16;14.00;99.90
52305;DHT22;38248;52.722;6.734;2022-10-30T03:14:42;13.80;99.90
52305;DHT22;38248;52.722;6.734;2022-10-30T03:17:08;13.70;99.90
52305;DHT22;38248;52.722;6.734;2022-10-30T03:19:33;13.70;99.90
52305;DHT22;38248;52.722;6.734;2022-10-30T03:22:00;13.50;99.90
52305;DHT22;38248;52.722;6.734;2022-10-30T03:24:25;13.50;99.90
52305;DHT22;38248;52.722;6.734;2022-10-30T03:26:51;13.40;99.90
52305;DHT22;38248;52.722;6.734;2022-10-30T03:29:16;13.40;99.90
52305;DHT22;38248;52.722;6.734;2022-10-30T03:31:42;13.30;99.90
52305;DHT22;38248;52.722;6.734;2022-10-30T03:34:08;13.30;99.90
52305;DHT22;38248;52.722;6.734;2022-10-30T03:36:36;13.30;99.90
52305;DHT22;38248;52.722;6.734;2022-10-30T03:39:02;13.30;99.90
52305;DHT22;38248;52.722;6.734;2022-10-30T03:41:28;13.20;99.90
52305;DHT22;38248;52.722;6.734;2022-10-30T03:43:54;13.20;99.90
52305;DHT22;38248;52.722;6.734;2022-10-30T03:46:27;13.10;99.90
52305;DHT22;38248;52.722;6.734;2022-10-30T03:48:52;13.10;99.90
52305;DHT22;38248;52.722;6.734;2022-10-30T03:51:18;13.10;99.90
52305;DHT22;38248;52.722;6.734;2022-10-30T03:53:44;13.10;99.90
52305;DHT22;38248;52.722;6.734;2022-10-30T03:56:10;13.10;99.90
52305;DHT22;38248;52.722;6.734;2022-10-30T03:58:35;13.00;99.90
52305;DHT22;38248;52.722;6.734;2022-10-30T04:01:05;13.00;99.90
52305;DHT22;38248;52.722;6.734;2022-10-30T04:03:31;12.90;99.90
52305;DHT22;38248;52.722;6.734;2022-10-30T04:06:00;12.90;99.90
52305;DHT22;38248;52.722;6.734;2022-10-30T04:08:26;12.90;99.90
52305;DHT22;38248;52.722;6.734;2022-10-30T04:10:51;12.80;99.90
52305;DHT22;38248;52.722;6.734;2022-10-30T04:13:17;12.80;99.90
52305;DHT22;38248;52.722;6.734;2022-10-30T04:15:46;12.80;99.90
52305;DHT22;38248;52.722;6.734;2022-10-30T04:18:16;12.80;99.90
52305;DHT22;38248;52.722;6.734;2022-10-30T04:20:42;12.80;99.90
52305;DHT22;38248;52.722;6.734;2022-10-30T04:23:13;12.80;99.90
52305;DHT22;38248;52.722;6.734;2022-10-30T04:25:39;12.90;99.90
52305;DHT22;38248;52.722;6.734;2022-10-30T04:28:04;12.90;99.90
52305;DHT22;38248;52.722;6.734;2022-10-30T04:30:32;12.90;99.90
52305;DHT22;38248;52.722;6.734;2022-10-30T04:33:03;12.90;99.90
52305;DHT22;38248;52.722;6.734;2022-10-30T04:35:33;12.90;99.90
52305;DHT22;38248;52.722;6.734;2022-10-30T04:38:01;13.00;99.90
52305;DHT22;38248;52.722;6.734;2022-10-30T04:40:29;12.80;99.90
52305;DHT22;38248;52.722;6.734;2022-10-30T04:42:55;12.70;99.90
52305;DHT22;38248;52.722;6.734;2022-10-30T04:45:21;12.70;99.90
52305;DHT22;38248;52.722;6.734;2022-10-30T04:47:47;12.70;99.90
52305;DHT22;38248;52.722;6.734;2022-10-30T04:50:13;12.50;99.90
52305;DHT22;38248;52.722;6.734;2022-10-30T04:52:39;12.50;99.90
52305;DHT22;38248;52.722;6.734;2022-10-30T04:55:06;12.50;99.90
52305;DHT22;38248;52.722;6.734;2022-10-30T04:57:32;12.40;99.90
52305;DHT22;38248;52.722;6.734;2022-10-30T04:59:59;12.40;99.90
52305;DHT22;38248;52.722;6.734;2022-10-30T05:02:24;12.30;99.90
52305;DHT22;38248;52.722;6.734;2022-10-30T05:04:50;12.30;99.90
52305;DHT22;38248;52.722;6.734;2022-10-30T05:07:16;12.30;99.90
52305;DHT22;38248;52.722;6.734;2022-10-30T05:09:42;12.30;99.90
52305;DHT22;38248;52.722;6.734;2022-10-30T05:12:09;12.20;99.90
52305;DHT22;38248;52.722;6.734;2022-10-30T05:14:35;12.20;99.90
52305;DHT22;38248;52.722;6.734;2022-10-30T05:17:00;12.30;99.90
52305;DHT22;38248;52.722;6.734;2022-10-30T05:19:26;12.20;99.90
52305;DHT22;38248;52.722;6.734;2022-10-30T05:21:52;12.30;99.90
52305;DHT22;38248;52.722;6.734;2022-10-30T05:24:17;12.30;99.90
52305;DHT22;38248;52.722;6.734;2022-10-30T05:26:43;12.20;99.90
52305;DHT22;38248;52.722;6.734;2022-10-30T05:29:11;12.20;99.90
52305;DHT22;38248;52.722;6.734;2022-10-30T05:31:37;12.10;99.90
52305;DHT22;38248;52.722;6.734;2022-10-30T05:34:02;12.10;99.90
52305;DHT22;38248;52.722;6.734;2022-10-30T05:36:28;12.20;99.90
52305;DHT22;38248;52.722;6.734;2022-10-30T05:38:53;12.20;99.90
52305;DHT22;38248;52.722;6.734;2022-10-30T05:41:19;12.20;99.90
52305;DHT22;38248;52.722;6.734;2022-10-30T05:43:45;12.20;99.90
52305;DHT22;38248;52.722;6.734;2022-10-30T05:46:10;12.30;99.90
52305;DHT22;38248;52.722;6.734;2022-10-30T05:48:36;12.30;99.90
52305;DHT22;38248;52.722;6.734;2022-10-30T05:51:01;12.30;99.90
52305;DHT22;38248;52.722;6.734;2022-10-30T05:53:28;12.30;99.90
52305;DHT22;38248;52.722;6.734;2022-10-30T05:55:58;12.20;99.90
52305;DHT22;38248;52.722;6.734;2022-10-30T05:58:24;12.20;99.90
52305;DHT22;38248;52.722;6.734;2022-10-30T06:00:50;12.10;99.90
52305;DHT22;38248;52.722;6.734;2022-10-30T06:03:18;12.10;99.90
52305;DHT22;38248;52.722;6.734;2022-10-30T06:05:45;12.00;99.90
52305;DHT22;38248;52.722;6.734;2022-10-30T06:08:10;12.00;99.90
52305;DHT22;38248;52.722;6.734;2022-10-30T06:10:36;12.00;99.90
52305;DHT22;38248;52.722;6.734;2022-10-30T06:13:04;12.00;99.90
52305;DHT22;38248;52.722;6.734;2022-10-30T06:15:31;12.00;99.90
52305;DHT22;38248;52.722;6.734;2022-10-30T06:17:57;12.10;99.90
52305;DHT22;38248;52.722;6.734;2022-10-30T06:20:27;12.10;99.90
52305;DHT22;38248;52.722;6.734;2022-10-30T06:23:04;12.30;99.90
52305;DHT22;38248;52.722;6.734;2022-10-30T06:25:32;12.20;99.90
52305;DHT22;38248;52.722;6.734;2022-10-30T06:27:58;12.30;99.90
52305;DHT22;38248;52.722;6.734;2022-10-30T06:30:25;12.40;99.90
52305;DHT22;38248;52.722;6.734;2022-10-30T06:33:01;12.40;99.90
52305;DHT22;38248;52.722;6.734;2022-10-30T06:35:27;12.40;99.90
52305;DHT22;38248;52.722;6.734;2022-10-30T06:37:54;12.40;99.90
52305;DHT22;38248;52.722;6.734;2022-10-30T06:40:23;12.50;99.90
52305;DHT22;38248;52.722;6.734;2022-10-30T06:42:50;12.40;99.90
52305;DHT22;38248;52.722;6.734;2022-10-30T06:45:18;12.50;99.90
52305;DHT22;38248;52.722;6.734;2022-10-30T06:47:44;12.50;99.90
52305;DHT22;38248;52.722;6.734;2022-10-30T06:50:13;12.40;99.90
52305;DHT22;38248;52.722;6.734;2022-10-30T06:52:38;12.40;99.90
52305;DHT22;38248;52.722;6.734;2022-10-30T06:55:05;12.40;99.90
52305;DHT22;38248;52.722;6.734;2022-10-30T06:57:31;12.40;99.90
52305;DHT22;38248;52.722;6.734;2022-10-30T06:59:56;12.30;99.90
52305;DHT22;38248;52.722;6.734;2022-10-30T07:02:22;12.50;99.90
52305;DHT22;38248;52.722;6.734;2022-10-30T07:04:48;12.40;99.90
52305;DHT22;38248;52.722;6.734;2022-10-30T07:07:14;12.50;99.90
52305;DHT22;38248;52.722;6.734;2022-10-30T07:09:40;12.50;99.90
52305;DHT22;38248;52.722;6.734;2022-10-30T07:12:06;12.50;99.90
52305;DHT22;38248;52.722;6.734;2022-10-30T07:14:33;12.60;99.90
52305;DHT22;38248;52.722;6.734;2022-10-30T07:16:58;12.60;99.90
52305;DHT22;38248;52.722;6.734;2022-10-30T07:19:24;12.60;99.90
52305;DHT22;38248;52.722;6.734;2022-10-30T07:21:49;12.70;99.90
52305;DHT22;38248;52.722;6.734;2022-10-30T07:24:15;12.80;99.90
52305;DHT22;38248;52.722;6.734;2022-10-30T07:26:41;12.80;99.90
52305;DHT22;38248;52.722;6.734;2022-10-30T07:29:06;12.80;99.90
52305;DHT22;38248;52.722;6.734;2022-10-30T07:31:32;12.90;99.90
52305;DHT22;38248;52.722;6.734;2022-10-30T07:33:58;12.90;99.90
52305;DHT22;38248;52.722;6.734;2022-10-30T07:36:23;12.90;99.90
52305;DHT22;38248;52.722;6.734;2022-10-30T07:38:52;13.00;99.90
52305;DHT22;38248;52.722;6.734;2022-10-30T07:41:18;13.00;99.90
52305;DHT22;38248;52.722;6.734;2022-10-30T07:43:44;13.10;99.90
52305;DHT22;38248;52.722;6.734;2022-10-30T07:46:10;13.10;99.90
52305;DHT22;38248;52.722;6.734;2022-10-30T07:48:36;13.20;99.90
52305;DHT22;38248;52.722;6.734;2022-10-30T07:51:01;13.30;99.90
52305;DHT22;38248;52.722;6.734;2022-10-30T07:53:27;13.30;99.90
52305;DHT22;38248;52.722;6.734;2022-10-30T07:55:54;13.30;99.90
52305;DHT22;38248;52.722;6.734;2022-10-30T07:58:20;13.40;99.90
52305;DHT22;38248;52.722;6.734;2022-10-30T08:00:45;13.50;99.90
52305;DHT22;38248;52.722;6.734;2022-10-30T08:03:12;13.60;99.90
52305;DHT22;38248;52.722;6.734;2022-10-30T08:05:37;13.70;99.90
52305;DHT22;38248;52.722;6.734;2022-10-30T08:08:05;13.80;99.90
52305;DHT22;38248;52.722;6.734;2022-10-30T08:10:31;13.90;99.90
52305;DHT22;38248;52.722;6.734;2022-10-30T08:12:57;14.00;99.90
52305;DHT22;38248;52.722;6.734;2022-10-30T08:15:23;14.10;99.90
52305;DHT22;38248;52.722;6.734;2022-10-30T08:17:49;14.20;99.90
52305;DHT22;38248;52.722;6.734;2022-10-30T08:20:18;14.40;99.90
52305;DHT22;38248;52.722;6.734;2022-10-30T08:22:51;14.40;99.90
52305;DHT22;38248;52.722;6.734;2022-10-30T08:25:19;14.50;99.90
52305;DHT22;38248;52.722;6.734;2022-10-30T08:27:57;14.60;99.90
52305;DHT22;38248;52.722;6.734;2022-10-30T08:30:25;14.70;99.90
52305;DHT22;38248;52.722;6.734;2022-10-30T08:32:55;14.80;99.90
52305;DHT22;38248;52.722;6.734;2022-10-30T08:35:21;14.90;99.90
52305;DHT22;38248;52.722;6.734;2022-10-30T08:37:49;15.00;99.90
52305;DHT22;38248;52.722;6.734;2022-10-30T08:40:16;15.00;99.90
52305;DHT22;38248;52.722;6.734;2022-10-30T08:42:48;15.10;99.90
52305;DHT22;38248;52.722;6.734;2022-10-30T08:45:14;15.20;99.90
52305;DHT22;38248;52.722;6.734;2022-10-30T08:47:39;15.20;99.90
52305;DHT22;38248;52.722;6.734;2022-10-30T08:50:05;15.30;99.90
52305;DHT22;38248;52.722;6.734;2022-10-30T08:52:31;15.30;99.90
52305;DHT22;38248;52.722;6.734;2022-10-30T08:54:56;15.30;99.90
52305;DHT22;38248;52.722;6.734;2022-10-30T08:57:22;15.30;99.90
52305;DHT22;38248;52.722;6.734;2022-10-30T08:59:47;15.30;99.90
52305;DHT22;38248;52.722;6.734;2022-10-30T09:02:16;15.30;99.90
52305;DHT22;38248;52.722;6.734;2022-10-30T09:04:42;15.30;99.90
52305;DHT22;38248;52.722;6.734;2022-10-30T09:07:07;15.40;99.90
52305;DHT22;38248;52.722;6.734;2022-10-30T09:09:33;15.50;99.90
52305;DHT22;38248;52.722;6.734;2022-10-30T09:11:58;15.40;99.90
52305;DHT22;38248;52.722;6.734;2022-10-30T09:14:24;15.50;99.90
52305;DHT22;38248;52.722;6.734;2022-10-30T09:16:50;15.60;99.90
52305;DHT22;38248;52.722;6.734;2022-10-30T09:19:15;15.60;99.90
52305;DHT22;38248;52.722;6.734;2022-10-30T09:21:41;15.70;99.90
52305;DHT22;38248;52.722;6.734;2022-10-30T09:24:06;15.70;99.90
52305;DHT22;38248;52.722;6.734;2022-10-30T09:26:32;15.70;99.90
52305;DHT22;38248;52.722;6.734;2022-10-30T09:28:57;15.80;99.90
52305;DHT22;38248;52.722;6.734;2022-10-30T09:31:25;15.80;99.90
52305;DHT22;38248;52.722;6.734;2022-10-30T09:33:51;15.90;99.90
52305;DHT22;38248;52.722;6.734;2022-10-30T09:36:17;16.00;99.90
52305;DHT22;38248;52.722;6.734;2022-10-30T09:38:42;16.00;99.90
52305;DHT22;38248;52.722;6.734;2022-10-30T09:50:06;16.30;99.90
52305;DHT22;38248;52.722;6.734;2022-10-30T09:53:06;16.30;99.90
52305;DHT22;38248;52.722;6.734;2022-10-30T09:55:41;16.40;99.90
52305;DHT22;38248;52.722;6.734;2022-10-30T10:00:55;16.50;99.90
52305;DHT22;38248;52.722;6.734;2022-10-30T10:03:36;16.50;99.90
52305;DHT22;38248;52.722;6.734;2022-10-30T10:06:12;16.60;99.90
52305;DHT22;38248;52.722;6.734;2022-10-30T10:11:36;16.60;99.90
52305;DHT22;38248;52.722;6.734;2022-10-30T10:14:20;16.80;99.90
52305;DHT22;38248;52.722;6.734;2022-10-30T10:16:51;16.70;99.90
52305;DHT22;38248;52.722;6.734;2022-10-30T10:21:47;16.60;99.90
52305;DHT22;38248;52.722;6.734;2022-10-30T10:24:32;16.70;99.90
52305;DHT22;38248;52.722;6.734;2022-10-30T10:34:56;17.00;99.90
52305;DHT22;38248;52.722;6.734;2022-10-30T10:41:01;17.10;99.90
52305;DHT22;38248;52.722;6.734;2022-10-30T10:43:57;17.10;99.90
52305;DHT22;38248;52.722;6.734;2022-10-30T10:52:29;17.20;99.90
52305;DHT22;38248;52.722;6.734;2022-10-30T10:55:01;17.30;99.90
52305;DHT22;38248;52.722;6.734;2022-10-30T10:57:33;17.30;99.90
52305;DHT22;38248;52.722;6.734;2022-10-30T11:00:21;17.30;99.90
52305;DHT22;38248;52.722;6.734;2022-10-30T11:03:08;17.40;99.90
52305;DHT22;38248;52.722;6.734;2022-10-30T11:05:45;17.50;99.90
52305;DHT22;38248;52.722;6.734;2022-10-30T11:08:32;17.50;99.90
52305;DHT22;38248;52.722;6.734;2022-10-30T11:11:04;17.60;99.90
52305;DHT22;38248;52.722;6.734;2022-10-30T11:13:34;17.70;99.90
52305;DHT22;38248;52.722;6.734;2022-10-30T11:18:45;17.70;99.90
52305;DHT22;38248;52.722;6.734;2022-10-30T11:21:17;17.80;99.90
52305;DHT22;38248;52.722;6.734;2022-10-30T11:23:46;17.90;99.90
52305;DHT22;38248;52.722;6.734;2022-10-30T11:34:19;18.20;99.90
52305;DHT22;38248;52.722;6.734;2022-10-30T11:36:48;18.20;99.90
52305;DHT22;38248;52.722;6.734;2022-10-30T11:39:25;18.30;99.90
52305;DHT22;38248;52.722;6.734;2022-10-30T11:46:56;18.30;99.90
52305;DHT22;38248;52.722;6.734;2022-10-30T11:49:46;18.30;99.90
52305;DHT22;38248;52.722;6.734;2022-10-30T11:52:15;18.30;99.90
52305;DHT22;38248;52.722;6.734;2022-10-30T11:54:49;18.40;99.90
52305;DHT22;38248;52.722;6.734;2022-10-30T11:57:43;18.40;99.90
52305;DHT22;38248;52.722;6.734;2022-10-30T12:00:29;18.40;99.90
52305;DHT22;38248;52.722;6.734;2022-10-30T12:02:57;18.50;99.90
52305;DHT22;38248;52.722;6.734;2022-10-30T12:13:20;18.70;99.90
52305;DHT22;38248;52.722;6.734;2022-10-30T12:15:49;18.80;99.90
52305;DHT22;38248;52.722;6.734;2022-10-30T12:18:25;18.80;99.90
52305;DHT22;38248;52.722;6.734;2022-10-30T12:20:54;18.90;99.90
52305;DHT22;38248;52.722;6.734;2022-10-30T12:23:22;19.00;99.90
52305;DHT22;38248;52.722;6.734;2022-10-30T12:25:52;19.00;99.90
52305;DHT22;38248;52.722;6.734;2022-10-30T12:28:24;19.00;99.90
52305;DHT22;38248;52.722;6.734;2022-10-30T12:30:55;19.10;99.90
52305;DHT22;38248;52.722;6.734;2022-10-30T12:33:26;19.00;99.90
52305;DHT22;38248;52.722;6.734;2022-10-30T12:36:02;19.00;99.90
52305;DHT22;38248;52.722;6.734;2022-10-30T12:38:42;19.00;99.90
52305;DHT22;38248;52.722;6.734;2022-10-30T12:41:17;19.00;99.90
52305;DHT22;38248;52.722;6.734;2022-10-30T12:43:51;18.90;99.90
52305;DHT22;38248;52.722;6.734;2022-10-30T12:46:42;19.00;99.90
52305;DHT22;38248;52.722;6.734;2022-10-30T12:52:39;19.10;99.90
52305;DHT22;38248;52.722;6.734;2022-10-30T12:55:16;19.20;99.90
52305;DHT22;38248;52.722;6.734;2022-10-30T13:00:44;19.40;99.90
52305;DHT22;38248;52.722;6.734;2022-10-30T13:03:23;19.50;99.90
52305;DHT22;38248;52.722;6.734;2022-10-30T13:05:58;19.50;99.90
52305;DHT22;38248;52.722;6.734;2022-10-30T13:08:38;19.60;99.90
52305;DHT22;38248;52.722;6.734;2022-10-30T13:14:15;19.60;99.90
52305;DHT22;38248;52.722;6.734;2022-10-30T13:16:41;19.60;99.90
52305;DHT22;38248;52.722;6.734;2022-10-30T13:19:10;19.60;99.90
52305;DHT22;38248;52.722;6.734;2022-10-30T13:21:48;19.70;99.90
52305;DHT22;38248;52.722;6.734;2022-10-30T13:24:35;19.70;99.90
52305;DHT22;38248;52.722;6.734;2022-10-30T13:27:09;19.80;99.90
52305;DHT22;38248;52.722;6.734;2022-10-30T13:29:51;19.80;99.90
52305;DHT22;38248;52.722;6.734;2022-10-30T13:35:21;19.90;99.90
52305;DHT22;38248;52.722;6.734;2022-10-30T13:40:58;19.80;99.90
52305;DHT22;38248;52.722;6.734;2022-10-30T13:46:54;19.60;99.90
52305;DHT22;38248;52.722;6.734;2022-10-30T13:54:37;19.50;99.90
52305;DHT22;38248;52.722;6.734;2022-10-30T13:57:16;19.50;99.90
52305;DHT22;38248;52.722;6.734;2022-10-30T14:02:52;19.50;99.90
52305;DHT22;38248;52.722;6.734;2022-10-30T14:10:47;19.30;99.90
52305;DHT22;38248;52.722;6.734;2022-10-30T14:13:26;19.20;99.90
52305;DHT22;38248;52.722;6.734;2022-10-30T14:15:55;19.20;99.90
52305;DHT22;38248;52.722;6.734;2022-10-30T14:18:44;19.20;99.90
52305;DHT22;38248;52.722;6.734;2022-10-30T14:24:20;19.10;99.90
52305;DHT22;38248;52.722;6.734;2022-10-30T14:27:07;19.00;99.90
52305;DHT22;38248;52.722;6.734;2022-10-30T14:32:01;19.00;99.90
52305;DHT22;38248;52.722;6.734;2022-10-30T14:34:56;18.90;99.90
52305;DHT22;38248;52.722;6.734;2022-10-30T14:39:51;19.10;99.90
52305;DHT22;38248;52.722;6.734;2022-10-30T14:47:49;19.80;99.90
52305;DHT22;38248;52.722;6.734;2022-10-30T14:55:49;20.10;99.90
52305;DHT22;38248;52.722;6.734;2022-10-30T14:58:25;19.90;99.90
52305;DHT22;38248;52.722;6.734;2022-10-30T15:09:39;19.30;99.90
52305;DHT22;38248;52.722;6.734;2022-10-30T15:15:14;19.00;99.90
52305;DHT22;38248;52.722;6.734;2022-10-30T15:17:42;18.80;99.90
52305;DHT22;38248;52.722;6.734;2022-10-30T15:20:27;18.60;99.90
52305;DHT22;38248;52.722;6.734;2022-10-30T15:23:17;18.50;99.90
52305;DHT22;38248;52.722;6.734;2022-10-30T15:25:48;18.40;99.90
52305;DHT22;38248;52.722;6.734;2022-10-30T15:28:18;18.20;99.90
52305;DHT22;38248;52.722;6.734;2022-10-30T15:33:29;18.00;99.90
52305;DHT22;38248;52.722;6.734;2022-10-30T15:35:57;17.80;99.90
52305;DHT22;38248;52.722;6.734;2022-10-30T15:38:23;17.70;99.90
52305;DHT22;38248;52.722;6.734;2022-10-30T15:40:49;17.60;99.90
52305;DHT22;38248;52.722;6.734;2022-10-30T15:43:16;17.50;99.90
52305;DHT22;38248;52.722;6.734;2022-10-30T15:45:46;17.40;99.90
52305;DHT22;38248;52.722;6.734;2022-10-30T15:48:28;17.30;99.90
52305;DHT22;38248;52.722;6.734;2022-10-30T15:51:03;17.20;99.90
52305;DHT22;38248;52.722;6.734;2022-10-30T15:53:43;17.10;99.90
52305;DHT22;38248;52.722;6.734;2022-10-30T15:56:18;17.00;99.90
52305;DHT22;38248;52.722;6.734;2022-10-30T15:58:50;16.90;99.90
52305;DHT22;38248;52.722;6.734;2022-10-30T16:01:25;16.80;99.90
52305;DHT22;38248;52.722;6.734;2022-10-30T16:03:52;16.70;99.90
52305;DHT22;38248;52.722;6.734;2022-10-30T16:06:19;16.70;99.90
52305;DHT22;38248;52.722;6.734;2022-10-30T16:08:47;16.60;99.90
52305;DHT22;38248;52.722;6.734;2022-10-30T16:11:14;16.50;99.90
52305;DHT22;38248;52.722;6.734;2022-10-30T16:13:40;16.40;99.90
52305;DHT22;38248;52.722;6.734;2022-10-30T16:16:21;16.40;99.90
52305;DHT22;38248;52.722;6.734;2022-10-30T16:18:48;16.30;99.90
52305;DHT22;38248;52.722;6.734;2022-10-30T16:21:16;16.30;99.90
52305;DHT22;38248;52.722;6.734;2022-10-30T16:24:02;16.20;99.90
52305;DHT22;38248;52.722;6.734;2022-10-30T16:26:38;16.10;99.90
52305;DHT22;38248;52.722;6.734;2022-10-30T16:31:40;15.90;99.90
52305;DHT22;38248;52.722;6.734;2022-10-30T16:34:22;15.70;99.90
52305;DHT22;38248;52.722;6.734;2022-10-30T16:36:50;15.70;99.90
52305;DHT22;38248;52.722;6.734;2022-10-30T16:39:17;15.60;99.90
52305;DHT22;38248;52.722;6.734;2022-10-30T16:41:44;15.50;99.90
52305;DHT22;38248;52.722;6.734;2022-10-30T16:44:18;15.40;99.90
52305;DHT22;38248;52.722;6.734;2022-10-30T16:46:50;15.40;99.90
52305;DHT22;38248;52.722;6.734;2022-10-30T16:49:19;15.30;99.90
52305;DHT22;38248;52.722;6.734;2022-10-30T16:51:54;15.30;99.90
52305;DHT22;38248;52.722;6.734;2022-10-30T16:54:31;15.30;99.90
52305;DHT22;38248;52.722;6.734;2022-10-30T16:56:59;15.30;99.90
52305;DHT22;38248;52.722;6.734;2022-10-30T16:59:36;15.20;99.90
52305;DHT22;38248;52.722;6.734;2022-10-30T17:02:14;15.20;99.90
52305;DHT22;38248;52.722;6.734;2022-10-30T17:04:43;15.30;99.90
52305;DHT22;38248;52.722;6.734;2022-10-30T17:07:23;15.20;99.90
52305;DHT22;38248;52.722;6.734;2022-10-30T17:09:53;15.20;99.90
52305;DHT22;38248;52.722;6.734;2022-10-30T17:12:23;15.20;99.90
52305;DHT22;38248;52.722;6.734;2022-10-30T17:14:51;15.20;99.90
52305;DHT22;38248;52.722;6.734;2022-10-30T17:17:30;15.20;99.90
52305;DHT22;38248;52.722;6.734;2022-10-30T17:19:57;15.10;99.90
52305;DHT22;38248;52.722;6.734;2022-10-30T17:22:24;15.10;99.90
52305;DHT22;38248;52.722;6.734;2022-10-30T17:24:50;15.10;99.90
52305;DHT22;38248;52.722;6.734;2022-10-30T17:27:36;15.10;99.90
52305;DHT22;38248;52.722;6.734;2022-10-30T17:30:28;15.00;99.90
52305;DHT22;38248;52.722;6.734;2022-10-30T17:32:54;15.00;99.90
52305;DHT22;38248;52.722;6.734;2022-10-30T17:35:21;14.90;99.90
52305;DHT22;38248;52.722;6.734;2022-10-30T17:37:47;15.00;99.90
52305;DHT22;38248;52.722;6.734;2022-10-30T17:40:13;14.90;99.90
52305;DHT22;38248;52.722;6.734;2022-10-30T17:42:39;14.90;99.90
52305;DHT22;38248;52.722;6.734;2022-10-30T17:45:06;14.90;99.90
52305;DHT22;38248;52.722;6.734;2022-10-30T17:47:35;14.90;99.90
52305;DHT22;38248;52.722;6.734;2022-10-30T17:50:00;14.90;99.90
52305;DHT22;38248;52.722;6.734;2022-10-30T17:52:27;15.00;99.90
52305;DHT22;38248;52.722;6.734;2022-10-30T17:54:56;15.00;99.90
52305;DHT22;38248;52.722;6.734;2022-10-30T17:57:22;14.90;99.90
52305;DHT22;38248;52.722;6.734;2022-10-30T17:59:49;15.00;99.90
52305;DHT22;38248;52.722;6.734;2022-10-30T18:02:17;14.90;99.90
52305;DHT22;38248;52.722;6.734;2022-10-30T18:04:44;14.90;99.90
52305;DHT22;38248;52.722;6.734;2022-10-30T18:07:11;14.90;99.90
52305;DHT22;38248;52.722;6.734;2022-10-30T18:09:37;14.90;99.90
52305;DHT22;38248;52.722;6.734;2022-10-30T18:12:04;14.90;99.90
52305;DHT22;38248;52.722;6.734;2022-10-30T18:14:30;14.90;99.90
52305;DHT22;38248;52.722;6.734;2022-10-30T18:16:56;14.90;99.90
52305;DHT22;38248;52.722;6.734;2022-10-30T18:19:24;14.90;99.90